createdAt,value
2022-10-19T00:01:43.350Z,58.88
2022-10-19T00:06:43.109Z,59.38
2022-10-19T00:11:43.180Z,58.28
2022-10-19T00:16:44.056Z,58.26
2022-10-19T00:21:42.371Z,58.21
2022-10-19T00:26:38.117Z,58.37
2022-10-19T00:31:32.604Z,58.52
2022-10-19T00:36:32.341Z,58.44
2022-10-19T00:41:35.195Z,58.19
2022-10-19T00:46:37.052Z,58.31
2022-10-19T00:51:35.649Z,58.17
2022-10-19T00:56:31.224Z,58.32
2022-10-19T01:01:29.605Z,58.07
2022-10-19T01:06:29.798Z,58.26
2022-10-19T01:11:43.731Z,58.00
2022-10-19T01:17:00.616Z,58.08
2022-10-19T01:22:21.401Z,58.28
2022-10-19T01:27:46.483Z,58.04
2022-10-19T01:32:43.543Z,58.45
2022-10-19T01:38:07.521Z,58.13
2022-10-19T01:43:32.293Z,58.63
2022-10-19T01:48:38.518Z,58.58
2022-10-19T01:53:41.364Z,58.28
2022-10-19T01:58:40.457Z,58.63
2022-10-19T02:03:37.692Z,58.72
2022-10-19T02:08:40.336Z,58.28
2022-10-19T02:13:37.456Z,58.17
2022-10-19T02:18:36.734Z,58.65
2022-10-19T02:23:33.664Z,58.61
2022-10-19T02:28:29.317Z,58.22
2022-10-19T02:33:25.269Z,58.56
2022-10-19T02:38:28.351Z,58.48
2022-10-19T02:43:27.294Z,58.18
2022-10-19T02:48:26.159Z,58.37
2022-10-19T02:53:19.444Z,58.38
2022-10-19T02:58:12.831Z,57.90
2022-10-19T03:03:06.651Z,57.87
2022-10-19T03:07:59.444Z,58.19
2022-10-19T03:12:53.432Z,57.97
2022-10-19T03:17:46.630Z,58.04
2022-10-19T03:22:42.225Z,58.10
2022-10-19T03:27:37.096Z,57.90
2022-10-19T03:32:30.912Z,57.98
2022-10-19T03:37:24.512Z,57.97
2022-10-19T03:42:19.196Z,58.16
2022-10-19T03:47:12.172Z,57.77
2022-10-19T03:52:06.312Z,57.83
2022-10-19T03:57:06.132Z,57.43
2022-10-19T04:02:06.505Z,57.48
2022-10-19T04:06:59.731Z,57.21
2022-10-19T04:11:53.341Z,57.24
2022-10-19T04:16:46.584Z,57.48
2022-10-19T04:21:41.765Z,57.47
2022-10-19T04:26:40.962Z,57.09
2022-10-19T04:31:34.395Z,57.39
2022-10-19T04:36:30.675Z,57.00
2022-10-19T04:41:24.439Z,56.91
2022-10-19T04:46:21.536Z,57.00
2022-10-19T04:51:15.835Z,56.87
2022-10-19T04:56:15.638Z,57.32
2022-10-19T05:01:11.743Z,57.00
2022-10-19T05:06:06.871Z,57.32
2022-10-19T05:11:09.194Z,57.08
2022-10-19T05:16:03.289Z,56.96
2022-10-19T05:21:03.036Z,53.87
2022-10-19T05:26:01.610Z,50.64
2022-10-19T05:30:55.150Z,50.08
2022-10-19T05:35:49.081Z,50.22
2022-10-19T05:40:50.278Z,49.07
2022-10-19T05:45:46.847Z,48.96
2022-10-19T05:50:43.907Z,49.08
2022-10-19T05:55:37.587Z,48.78
2022-10-19T06:00:31.029Z,49.13
2022-10-19T06:05:24.999Z,50.01
2022-10-19T06:10:18.778Z,50.33
2022-10-19T06:15:12.893Z,50.61
2022-10-19T06:20:07.608Z,50.70
2022-10-19T06:25:01.554Z,50.94
2022-10-19T06:29:55.703Z,51.01
2022-10-19T06:34:49.981Z,51.28
2022-10-19T06:39:44.864Z,51.11
2022-10-19T06:44:38.494Z,50.67
2022-10-19T06:49:32.337Z,50.59
2022-10-19T06:54:26.494Z,50.70
2022-10-19T06:59:19.615Z,51.21
2022-10-19T07:04:12.383Z,50.68
2022-10-19T07:09:05.271Z,51.01
2022-10-19T07:13:58.743Z,51.29
2022-10-19T07:18:57.366Z,50.95
2022-10-19T07:23:50.424Z,51.11
2022-10-19T07:28:46.469Z,51.58
2022-10-19T07:33:40.031Z,51.09
2022-10-19T07:38:34.246Z,51.03
2022-10-19T07:43:28.029Z,51.37
2022-10-19T07:48:21.924Z,51.80
2022-10-19T07:53:16.278Z,51.76
2022-10-19T07:58:08.820Z,51.58
2022-10-19T08:03:43.272Z,52.15
2022-10-19T08:08:15.469Z,52.35
2022-10-19T08:13:09.522Z,52.13
2022-10-19T08:18:03.428Z,52.47
2022-10-19T08:22:59.019Z,52.29
2022-10-19T08:27:53.143Z,52.66
2022-10-19T08:32:47.030Z,53.12
2022-10-19T08:37:45.087Z,53.05
2022-10-19T08:43:03.455Z,53.69
2022-10-19T08:48:28.309Z,53.80
2022-10-19T08:53:45.188Z,53.57
2022-10-19T08:58:37.956Z,53.56
2022-10-19T09:03:56.516Z,53.82
2022-10-19T09:08:57.055Z,53.79
2022-10-19T09:14:04.874Z,54.27
2022-10-19T09:18:59.162Z,53.95
2022-10-19T09:24:10.229Z,54.05
2022-10-19T09:29:18.306Z,54.04
2022-10-19T09:34:23.706Z,54.09
2022-10-19T09:39:16.580Z,54.52
2022-10-19T09:44:10.758Z,54.73
2022-10-19T09:49:05.753Z,54.66
2022-10-19T09:54:00.535Z,54.49
2022-10-19T09:58:58.139Z,54.62
2022-10-19T10:03:53.882Z,54.43
2022-10-19T10:08:58.281Z,54.78
2022-10-19T10:13:54.817Z,54.87
2022-10-19T10:18:59.732Z,54.81
2022-10-19T10:24:01.750Z,54.99
2022-10-19T10:29:01.573Z,55.31
2022-10-19T10:34:28.634Z,55.12
2022-10-19T10:39:30.842Z,54.98
2022-10-19T10:44:34.198Z,55.20
2022-10-19T10:49:36.197Z,55.01
2022-10-19T10:54:32.158Z,55.05
2022-10-19T10:59:32.709Z,55.19
2022-10-19T11:04:32.805Z,54.97
2022-10-19T11:09:43.000Z,55.43
2022-10-19T11:14:54.507Z,55.15
2022-10-19T11:19:53.728Z,54.83
2022-10-19T11:24:56.021Z,54.87
2022-10-19T11:30:21.249Z,54.71
2022-10-19T11:35:29.631Z,54.84
2022-10-19T11:40:54.274Z,54.91
2022-10-19T11:45:57.273Z,54.82
2022-10-19T11:51:21.780Z,54.63
2022-10-19T11:56:39.156Z,54.69
2022-10-19T12:01:53.286Z,54.87
2022-10-19T12:07:02.103Z,55.92
2022-10-19T12:12:33.153Z,55.79
2022-10-19T12:17:31.732Z,56.05
2022-10-19T12:22:29.691Z,56.02
2022-10-19T12:27:34.441Z,56.06
2022-10-19T12:32:29.752Z,56.51
2022-10-19T12:37:35.852Z,56.45
2022-10-19T12:42:52.375Z,56.37
2022-10-19T12:48:11.892Z,56.27
2022-10-19T12:53:05.641Z,56.06
2022-10-19T12:58:01.533Z,56.77
2022-10-19T13:03:14.955Z,57.23
2022-10-19T13:08:12.088Z,57.19
2022-10-19T13:13:59.608Z,58.25
2022-10-19T13:19:08.539Z,57.72
2022-10-19T13:24:26.115Z,58.71
2022-10-19T13:29:27.731Z,59.54
2022-10-19T13:34:21.145Z,60.64
2022-10-19T13:39:16.224Z,61.45
2022-10-19T13:44:12.997Z,61.41
2022-10-19T13:49:40.987Z,62.35
2022-10-19T13:55:01.076Z,62.08
2022-10-19T14:00:06.293Z,62.34
2022-10-19T14:05:34.179Z,63.01
2022-10-19T14:10:33.128Z,62.51
2022-10-19T14:15:55.101Z,62.90
2022-10-19T14:21:04.100Z,61.54
2022-10-19T14:26:04.473Z,61.06
2022-10-19T14:31:04.732Z,62.76
2022-10-19T14:35:58.967Z,61.59
2022-10-19T14:40:52.419Z,60.83
2022-10-19T14:45:45.700Z,62.20
2022-10-19T14:50:55.475Z,62.74
2022-10-19T14:55:51.502Z,63.71
2022-10-19T15:00:49.207Z,63.40
2022-10-19T15:05:50.171Z,62.97
2022-10-19T15:10:44.597Z,63.50
2022-10-19T15:15:38.377Z,63.29
2022-10-19T15:20:43.960Z,63.52
2022-10-19T15:25:59.296Z,63.36
2022-10-19T15:31:00.705Z,63.34
2022-10-19T15:36:04.419Z,63.77
2022-10-19T15:41:02.648Z,63.55
2022-10-19T15:46:21.804Z,63.47
2022-10-19T15:51:26.483Z,63.55
2022-10-19T15:56:20.763Z,63.44
2022-10-19T16:01:23.164Z,62.77
2022-10-19T16:06:19.093Z,61.46
2022-10-19T16:11:14.984Z,63.04
2022-10-19T16:16:13.551Z,62.50
2022-10-19T16:21:07.668Z,61.74
2022-10-19T16:26:02.169Z,60.01
2022-10-19T16:30:57.743Z,61.50
2022-10-19T16:35:52.075Z,60.23
2022-10-19T16:40:45.665Z,61.03
2022-10-19T16:45:43.254Z,62.20
2022-10-19T16:50:36.796Z,62.47
2022-10-19T16:55:31.162Z,63.54
2022-10-19T17:00:25.075Z,63.22
2022-10-19T17:05:18.515Z,63.11
2022-10-19T17:10:12.567Z,63.64
2022-10-19T17:20:21.102Z,60.05
2022-10-19T17:25:14.508Z,60.19
2022-10-19T17:30:12.450Z,59.81
2022-10-19T17:35:09.724Z,59.71
2022-10-19T17:40:03.051Z,59.80
2022-10-19T17:44:56.731Z,59.76
2022-10-19T17:49:49.690Z,59.65
2022-10-19T17:54:54.509Z,59.67
2022-10-19T18:00:00.878Z,59.83
2022-10-19T18:04:54.650Z,59.57
2022-10-19T18:09:48.691Z,59.56
2022-10-19T18:14:50.313Z,59.40
2022-10-19T18:19:45.520Z,59.59
2022-10-19T18:24:40.213Z,59.67
2022-10-19T18:29:32.918Z,59.26
2022-10-19T18:34:27.326Z,59.90
2022-10-19T18:39:20.936Z,59.90
2022-10-19T18:44:14.088Z,59.66
2022-10-19T18:49:09.179Z,59.65
2022-10-19T18:54:02.538Z,59.33
2022-10-19T18:58:56.485Z,59.69
2022-10-19T19:03:51.278Z,59.53
2022-10-19T19:08:45.300Z,59.80
2022-10-19T19:13:40.470Z,59.70
2022-10-19T19:18:34.871Z,59.65
2022-10-19T19:23:32.667Z,59.56
2022-10-19T19:28:26.830Z,59.26
2022-10-19T19:33:20.870Z,59.58
2022-10-19T19:38:15.553Z,59.43
2022-10-19T19:43:10.071Z,59.29
2022-10-19T19:48:03.620Z,59.54
2022-10-19T19:53:00.252Z,59.42
2022-10-19T19:57:55.149Z,59.00
2022-10-19T20:02:53.640Z,59.47
2022-10-19T20:07:47.606Z,59.29
2022-10-19T20:12:40.947Z,59.47
2022-10-19T20:17:34.347Z,59.63
2022-10-19T20:22:28.665Z,59.29
2022-10-19T20:27:22.219Z,59.36
2022-10-19T20:32:15.621Z,59.72
2022-10-19T20:37:10.291Z,59.54
2022-10-19T20:42:03.600Z,59.56
2022-10-19T20:46:57.810Z,59.69
2022-10-19T20:51:54.082Z,59.42
2022-10-19T20:56:47.570Z,59.21
2022-10-19T21:01:42.568Z,59.55
2022-10-19T21:06:38.389Z,59.70
2022-10-19T21:11:34.740Z,59.63
2022-10-19T21:16:30.424Z,59.39
2022-10-19T21:21:25.886Z,59.92
2022-10-19T21:26:19.286Z,59.35
2022-10-19T21:31:13.186Z,59.63
2022-10-19T21:36:09.008Z,59.65
2022-10-19T21:41:05.876Z,59.65
2022-10-19T21:46:02.544Z,59.47
2022-10-19T21:50:55.941Z,59.43
2022-10-19T21:55:49.524Z,59.29
2022-10-19T22:00:42.804Z,59.41
2022-10-19T22:05:37.094Z,59.18
2022-10-19T22:10:30.460Z,59.11
2022-10-19T22:15:24.821Z,59.28
2022-10-19T22:20:18.893Z,59.06
2022-10-19T22:25:12.452Z,59.13
2022-10-19T22:30:08.573Z,59.21
2022-10-19T22:35:01.825Z,59.08
2022-10-19T22:39:58.920Z,59.37
2022-10-19T22:45:08.135Z,59.29
2022-10-19T22:50:03.082Z,59.23
2022-10-19T22:54:56.663Z,59.00
2022-10-19T22:59:50.273Z,59.31
2022-10-19T23:04:44.446Z,59.40
2022-10-19T23:09:37.275Z,58.99
2022-10-19T23:14:30.639Z,58.89
2022-10-19T23:19:24.785Z,58.81
2022-10-19T23:24:18.652Z,59.35
2022-10-19T23:29:12.586Z,59.23
2022-10-19T23:34:05.430Z,59.14
2022-10-19T23:38:59.482Z,58.81
2022-10-19T23:43:53.174Z,59.14
2022-10-19T23:48:47.061Z,59.10
2022-10-19T23:53:42.406Z,59.39
2022-10-19T23:58:35.925Z,60.05
